Jenkinsville, South Carolina
Current Conditions -  °F | °C
As of 12:35 AM on Tuesday 27 Jan 2015 (Local Time) from KFDW Reporting Station
Clear Clear  
Wind Chill: 31°   Ceiling: Unl
Heat Index: 36°   Visibility: 10mi
Dew Point: 27°   Wind: 6mph
Humidity: 70%   Direction: 300°WNW
Pressure: 29.78"   Gusts: NA
Location:  34.27°N, 81.29°W
Report Text: KFDW 270535Z AUTO 30005KT 10SM CLR 02/M03 A2978 RMK AO1
Loading
Personal Weather Stations






























Interactive Weather Map New forecast layout! Learn more

10-Day Weather Forecast

Advertisements
Track Severe Weather on mobile